Corona Emblem — 3FHF8 — position and weather

sailwx.info

Track history (hours):
 
Tides and Currents Weather Stations Pressure Air Temp Water Temp Dewpoint Dewpoint Depression Visibility Wind Speed Wind Dir Waves Ship Positions

Corona Emblem

Last reported at 2014-Sep-13 07:28 UTC. Time now 2014-Sep-20 01:59 UTC.
Position N 35°57' E 141°16'.

Length 230 m; beam 36 m.

Type: Cargo ship. MMSI: 354224000.

Date/timePositionNaut miles runAvg speedWind from/ knotsBaromVisibWave heightAir tempDewpointWater temp
2014-Sep-13 07:28N 35°57' E 141°16'1212.1
2014-Sep-13 06:30N 36°08' E 141°11'1212.5
2014-Sep-13 05:31N 36°20' E 141°07'38 6.4
2014-Sep-12 23:33N 36°56' E 140°53'0 0.0
2014-Sep-12 22:30N 36°56' E 140°53'0 0.0
2014-Sep-12 21:30N 36°56' E 140°53'0 0.0
2014-Sep-12 20:27N 36°56' E 140°53'0 0.1
2014-Sep-12 19:33N 36°56' E 140°53'0 0.0
2014-Sep-12 18:33N 36°56' E 140°53'0 0.0
2014-Sep-12 11:33N 36°56' E 140°53'  
2014-Sep-06 12:32N 36°53' E 140°56'0 0.1
2014-Sep-06 11:32N 36°53' E 140°56'0 0.1
2014-Sep-06 09:08N 36°53' E 140°56'  
2014-Sep-04 00:11N 36°45' E 141°29'1 0.3
2014-Sep-03 21:19N 36°46' E 141°29'2 0.4
2014-Sep-03 17:10N 36°48' E 141°28'0 0.1
2014-Sep-03 13:33N 36°47' E 141°28'0 0.1
2014-Sep-03 12:33N 36°47' E 141°28'  
Track history (hours):
 
Tides and Currents Weather Stations Pressure Air Temp Water Temp Dewpoint Dewpoint Depression Visibility Wind Speed Wind Dir Waves Ship Positions

Corona Emblem

Last reported at 2014-Sep-13 07:28 UTC. Time now 2014-Sep-20 01:59 UTC.
Position N 35°57' E 141°16'.

Length 230 m; beam 36 m.

Type: Cargo ship. MMSI: 354224000.

Date/timePositionNaut miles runAvg speedWind from/ knotsBaromVisibWave heightAir tempDewpointWater temp
2014-Sep-13 07:28N 35°57' E 141°16'1212.1
2014-Sep-13 06:30N 36°08' E 141°11'1212.5
2014-Sep-13 05:31N 36°20' E 141°07'38 6.4
2014-Sep-12 23:33N 36°56' E 140°53'0 0.0
2014-Sep-12 22:30N 36°56' E 140°53'0 0.0
2014-Sep-12 21:30N 36°56' E 140°53'0 0.0
2014-Sep-12 20:27N 36°56' E 140°53'0 0.1
2014-Sep-12 19:33N 36°56' E 140°53'0 0.0
2014-Sep-12 18:33N 36°56' E 140°53'0 0.0
2014-Sep-12 11:33N 36°56' E 140°53'  
2014-Sep-06 12:32N 36°53' E 140°56'0 0.1
2014-Sep-06 11:32N 36°53' E 140°56'0 0.1
2014-Sep-06 09:08N 36°53' E 140°56'  
2014-Sep-04 00:11N 36°45' E 141°29'1 0.3
2014-Sep-03 21:19N 36°46' E 141°29'2 0.4
2014-Sep-03 17:10N 36°48' E 141°28'0 0.1
2014-Sep-03 13:33N 36°47' E 141°28'0 0.1
2014-Sep-03 12:33N 36°47' E 141°28'  

Dump ship's entire track history